createdAt,value
2023-11-07T00:01:45.797Z,9.42
2023-11-07T00:04:12.732Z,9.38
2023-11-07T00:06:41.461Z,9.30
2023-11-07T00:09:08.766Z,9.26
2023-11-07T00:11:35.863Z,9.22
2023-11-07T00:14:03.132Z,9.19
2023-11-07T00:16:31.233Z,9.18
2023-11-07T00:18:57.845Z,9.19
2023-11-07T00:21:24.613Z,9.16
2023-11-07T00:23:51.113Z,9.13
2023-11-07T00:26:19.547Z,9.08
2023-11-07T00:28:49.581Z,9.06
2023-11-07T00:31:16.093Z,9.04
2023-11-07T00:33:43.120Z,9.04
2023-11-07T00:36:11.990Z,9.03
2023-11-07T00:38:38.688Z,9.04
2023-11-07T00:41:05.526Z,9.05
2023-11-07T00:43:32.103Z,9.10
2023-11-07T00:45:58.524Z,9.14
2023-11-07T00:48:25.327Z,9.20
2023-11-07T00:50:51.926Z,9.27
2023-11-07T00:53:18.485Z,9.35
2023-11-07T00:55:45.025Z,9.42
2023-11-07T00:58:11.466Z,9.45
2023-11-07T01:00:38.079Z,9.49
2023-11-07T01:03:04.762Z,9.48
2023-11-07T01:05:31.664Z,9.48
2023-11-07T01:07:58.418Z,9.46
2023-11-07T01:10:25.129Z,9.34
2023-11-07T01:12:54.044Z,9.25
2023-11-07T01:15:20.777Z,9.16
2023-11-07T01:17:47.488Z,9.12
2023-11-07T01:20:14.165Z,9.07
2023-11-07T01:22:40.931Z,9.06
2023-11-07T01:25:07.842Z,9.04
2023-11-07T01:27:34.441Z,9.01
2023-11-07T01:30:01.054Z,9.01
2023-11-07T01:32:29.245Z,9.04
2023-11-07T01:34:55.878Z,9.05
2023-11-07T01:37:22.445Z,9.09
2023-11-07T01:39:48.912Z,9.11
2023-11-07T01:42:15.461Z,9.12
2023-11-07T01:44:52.809Z,9.14
2023-11-07T01:47:21.850Z,9.17
2023-11-07T01:49:49.309Z,9.21
2023-11-07T01:52:18.761Z,9.25
2023-11-07T01:54:46.298Z,9.30
2023-11-07T01:57:13.672Z,9.31
2023-11-07T01:59:40.901Z,9.30
2023-11-07T02:02:11.794Z,9.33
2023-11-07T02:04:38.886Z,9.34
2023-11-07T02:07:07.737Z,9.39
2023-11-07T03:36:53.152Z,9.24
2023-11-07T03:39:19.981Z,9.29
2023-11-07T03:41:47.288Z,9.31
2023-11-07T03:44:14.957Z,9.35
2023-11-07T03:46:42.240Z,9.38
2023-11-07T03:49:08.978Z,9.37
2023-11-07T03:51:35.675Z,9.36
2023-11-07T03:54:02.420Z,9.37
2023-11-07T03:56:29.023Z,9.37
2023-11-07T03:58:55.445Z,9.38
2023-11-07T04:01:21.978Z,9.41
2023-11-07T04:03:48.538Z,9.43
2023-11-07T04:06:15.188Z,9.48
2023-11-07T04:08:41.668Z,9.48
2023-11-07T04:11:08.263Z,9.49
2023-11-07T04:13:35.556Z,9.51
2023-11-07T04:16:03.613Z,9.53
2023-11-07T04:18:30.557Z,9.58
2023-11-07T04:20:57.429Z,9.56
2023-11-07T04:23:24.412Z,9.57
2023-11-07T04:25:51.314Z,9.60
2023-11-07T04:28:18.002Z,9.61
2023-11-07T04:30:44.805Z,9.61
2023-11-07T04:33:11.541Z,9.59
2023-11-07T04:35:38.317Z,9.54
2023-11-07T04:38:05.825Z,9.55
2023-11-07T04:40:32.366Z,9.54
2023-11-07T04:42:59.056Z,9.52
2023-11-07T04:45:25.607Z,9.49
2023-11-07T04:47:52.296Z,9.45
2023-11-07T04:50:18.943Z,9.46
2023-11-07T04:52:45.527Z,9.44
2023-11-07T04:55:12.931Z,9.40
2023-11-07T04:57:39.818Z,9.43
2023-11-07T05:00:09.556Z,9.42
2023-11-07T05:02:36.248Z,9.38
2023-11-07T05:05:05.138Z,9.38
2023-11-07T05:07:31.622Z,9.39
2023-11-07T05:09:59.891Z,9.35
2023-11-07T05:12:26.783Z,9.33
2023-11-07T05:14:53.434Z,9.30
2023-11-07T05:17:21.896Z,9.30
2023-11-07T05:19:48.409Z,9.25
2023-11-07T05:22:15.217Z,9.25
2023-11-07T05:24:41.832Z,9.24
2023-11-07T05:27:09.092Z,9.24
2023-11-07T05:29:35.901Z,9.22
2023-11-07T05:32:03.377Z,9.20
2023-11-07T05:34:30.001Z,9.20
2023-11-07T05:36:56.754Z,9.17
2023-11-07T05:39:23.318Z,9.15
2023-11-07T05:41:49.887Z,9.13
2023-11-07T05:44:16.953Z,9.12
2023-11-07T05:46:43.580Z,9.13
2023-11-07T05:49:10.640Z,9.15
2023-11-07T05:51:39.274Z,9.21
2023-11-07T05:54:05.956Z,9.23
2023-11-07T05:56:32.506Z,9.22
2023-11-07T05:58:58.991Z,9.20
2023-11-07T06:01:25.472Z,9.19
2023-11-07T06:03:52.040Z,9.18
2023-11-07T06:06:18.695Z,9.13
2023-11-07T06:08:45.468Z,9.12
2023-11-07T06:11:12.049Z,9.10
2023-11-07T06:13:39.025Z,9.10
2023-11-07T06:16:06.295Z,9.08
2023-11-07T06:18:33.806Z,9.06
2023-11-07T06:21:00.491Z,9.02
2023-11-07T06:23:27.029Z,8.98
2023-11-07T06:25:53.576Z,8.99
2023-11-07T06:28:20.115Z,8.98
2023-11-07T06:30:47.443Z,8.95
2023-11-07T06:33:14.058Z,8.93
2023-11-07T06:35:40.756Z,8.93
2023-11-07T06:38:08.572Z,8.89
2023-11-07T06:40:35.715Z,8.92
2023-11-07T06:43:04.619Z,8.90
2023-11-07T06:45:31.245Z,8.94
2023-11-07T06:47:57.837Z,8.96
2023-11-07T06:50:24.667Z,8.99
2023-11-07T06:52:52.925Z,8.99
2023-11-07T06:55:24.513Z,8.98
2023-11-07T06:57:52.083Z,9.04
2023-11-07T07:00:22.216Z,9.07
2023-11-07T07:02:49.786Z,9.08
2023-11-07T07:05:17.415Z,9.07
2023-11-07T07:07:43.959Z,9.07
2023-11-07T07:10:11.597Z,9.07
2023-11-07T07:12:39.076Z,9.09
2023-11-07T07:15:09.141Z,9.12
2023-11-07T07:17:35.869Z,9.08
2023-11-07T07:20:04.432Z,9.11
2023-11-07T07:22:30.946Z,9.11
2023-11-07T07:24:57.656Z,9.15
2023-11-07T07:27:30.160Z,9.20
2023-11-07T07:29:58.133Z,9.23
2023-11-07T07:32:24.904Z,9.25
2023-11-07T07:34:52.801Z,9.22
2023-11-07T07:37:21.904Z,9.25
2023-11-07T07:39:49.235Z,9.28
2023-11-07T07:42:18.457Z,9.29
2023-11-07T07:44:45.915Z,9.32
2023-11-07T07:47:12.854Z,9.29
2023-11-07T07:49:41.162Z,9.32
2023-11-07T07:52:11.359Z,9.33
2023-11-07T07:55:00.429Z,9.37
2023-11-07T07:57:25.454Z,9.38
2023-11-07T07:59:51.967Z,9.40
2023-11-07T08:02:18.650Z,9.41
2023-11-07T08:04:47.582Z,9.40
2023-11-07T08:07:18.338Z,9.40
2023-11-07T08:09:46.782Z,9.39
2023-11-07T08:12:13.876Z,9.39
2023-11-07T08:14:42.249Z,9.38
2023-11-07T08:17:10.817Z,9.35
2023-11-07T08:19:37.384Z,9.39
2023-11-07T08:22:08.472Z,9.44
2023-11-07T08:24:35.230Z,9.43
2023-11-07T08:27:01.895Z,9.39
2023-11-07T08:29:28.764Z,9.34
2023-11-07T08:31:56.275Z,9.35
2023-11-07T08:34:23.647Z,9.39
2023-11-07T08:36:56.907Z,9.39
2023-11-07T08:39:34.973Z,9.43
2023-11-07T08:42:01.680Z,9.46
2023-11-07T08:44:28.290Z,9.46
2023-11-07T08:46:55.010Z,9.50
2023-11-07T08:49:22.732Z,9.51
2023-11-07T08:51:53.056Z,9.59
2023-11-07T08:54:20.221Z,9.64
2023-11-07T08:56:50.661Z,9.65
2023-11-07T08:59:19.350Z,9.66
2023-11-07T09:01:49.208Z,9.62
2023-11-07T09:04:16.061Z,9.68
2023-11-07T09:06:42.644Z,9.73
2023-11-07T09:09:09.926Z,9.78
2023-11-07T09:11:36.399Z,9.76
2023-11-07T09:14:02.932Z,9.78
2023-11-07T09:16:30.277Z,9.79
2023-11-07T09:18:56.839Z,9.80
2023-11-07T09:21:23.501Z,9.88
2023-11-07T09:23:51.320Z,9.89
2023-11-07T09:26:20.426Z,9.87
2023-11-07T09:28:46.974Z,9.82
2023-11-07T09:31:13.730Z,9.82
2023-11-07T09:33:40.536Z,9.80
2023-11-07T09:36:10.899Z,9.78
2023-11-07T09:38:46.998Z,9.82
2023-11-07T09:41:19.202Z,9.84
2023-11-07T09:43:46.135Z,9.86
2023-11-07T09:46:12.984Z,9.87
2023-11-07T09:48:40.360Z,9.87
2023-11-07T09:51:09.797Z,9.89
2023-11-07T09:53:36.606Z,9.97
2023-11-07T09:56:05.970Z,10.05
2023-11-07T09:58:32.503Z,10.10
2023-11-07T10:00:59.515Z,10.10
2023-11-07T10:03:26.213Z,10.16
2023-11-07T10:05:53.478Z,10.11
2023-11-07T10:08:28.246Z,10.15
2023-11-07T10:11:12.210Z,10.21
2023-11-07T10:13:39.532Z,10.25
2023-11-07T10:18:50.044Z,10.11
2023-11-07T10:21:30.534Z,10.07
2023-11-07T10:23:57.207Z,10.04
2023-11-07T10:26:25.536Z,9.99
2023-11-07T10:29:17.927Z,10.00
2023-11-07T10:32:01.925Z,10.03
2023-11-07T10:34:28.885Z,10.12
2023-11-07T10:36:55.784Z,10.13
2023-11-07T10:39:27.690Z,10.22
2023-11-07T10:41:59.544Z,10.28
2023-11-07T10:44:30.058Z,10.35
2023-11-07T10:47:01.311Z,10.31
2023-11-07T10:49:29.498Z,10.35
2023-11-07T10:51:57.024Z,10.29
2023-11-07T10:54:25.821Z,10.22
2023-11-07T10:56:52.838Z,10.24
2023-11-07T10:59:21.982Z,10.19
2023-11-07T11:01:52.820Z,10.21
2023-11-07T11:04:23.760Z,10.28
2023-11-07T11:06:54.868Z,10.33
2023-11-07T11:09:23.375Z,10.29
2023-11-07T11:11:52.205Z,10.26
2023-11-07T11:14:20.223Z,10.21
2023-11-07T11:16:51.398Z,10.20
2023-11-07T11:19:31.066Z,10.24
2023-11-07T11:22:03.860Z,10.22
2023-11-07T11:24:54.812Z,10.26
2023-11-07T11:27:25.280Z,10.25
2023-11-07T11:29:51.939Z,10.29
2023-11-07T11:32:28.490Z,10.36
2023-11-07T11:35:17.629Z,10.29
2023-11-07T11:38:22.485Z,10.35
2023-11-07T11:40:56.674Z,10.32
2023-11-07T11:43:25.844Z,10.36
2023-11-07T11:46:03.243Z,10.37
2023-11-07T11:48:53.912Z,10.39
2023-11-07T11:51:33.916Z,10.43
2023-11-07T11:54:00.978Z,10.40
2023-11-07T11:56:27.702Z,10.40
2023-11-07T11:59:04.871Z,10.45
2023-11-07T12:01:49.452Z,10.41
2023-11-07T12:04:42.945Z,10.40
2023-11-07T12:07:15.710Z,10.41
2023-11-07T12:09:44.114Z,10.44
2023-11-07T12:12:11.127Z,10.44
2023-11-07T12:14:58.237Z,10.45
2023-11-07T12:17:27.268Z,10.48
2023-11-07T12:20:08.710Z,10.44
2023-11-07T12:22:35.970Z,10.38
2023-11-07T12:25:14.789Z,10.34
2023-11-07T12:27:42.658Z,10.32
2023-11-07T12:30:27.135Z,10.22
2023-11-07T12:33:05.084Z,10.17
2023-11-07T12:35:34.184Z,10.07
2023-11-07T12:38:04.917Z,10.01
2023-11-07T12:40:32.376Z,9.98
2023-11-07T12:42:59.532Z,9.93
2023-11-07T12:45:30.492Z,9.89
2023-11-07T12:48:02.019Z,9.84
2023-11-07T12:50:34.510Z,9.86
2023-11-07T12:53:03.669Z,9.84
2023-11-07T12:55:31.626Z,9.84
2023-11-07T12:57:58.780Z,9.86
2023-11-07T13:00:29.951Z,9.86
2023-11-07T13:02:57.781Z,9.90
2023-11-07T13:05:27.914Z,9.97
2023-11-07T13:07:54.555Z,9.99
2023-11-07T13:10:24.287Z,10.00
2023-11-07T13:12:51.552Z,10.02
2023-11-07T13:15:18.261Z,10.06
2023-11-07T13:17:46.667Z,10.10
2023-11-07T13:20:14.717Z,10.14
2023-11-07T13:22:41.781Z,10.16
2023-11-07T13:25:10.643Z,10.15
2023-11-07T13:27:38.809Z,10.20
2023-11-07T13:30:09.925Z,10.24
2023-11-07T13:32:36.867Z,10.25
2023-11-07T13:35:04.686Z,10.19
2023-11-07T13:37:31.811Z,10.14
2023-11-07T13:39:59.470Z,10.05
2023-11-07T13:42:26.678Z,10.00
2023-11-07T13:44:53.485Z,9.98
2023-11-07T13:47:20.332Z,9.99
2023-11-07T13:49:47.144Z,10.04
2023-11-07T13:52:13.687Z,10.04
2023-11-07T13:54:40.263Z,10.07
2023-11-07T13:57:06.858Z,10.07
2023-11-07T13:59:33.500Z,10.12
2023-11-07T14:02:00.113Z,10.17
2023-11-07T14:04:26.738Z,10.25
2023-11-07T14:06:53.462Z,10.36
2023-11-07T14:09:20.545Z,10.38
2023-11-07T14:11:47.189Z,10.31
2023-11-07T14:14:13.681Z,10.35
2023-11-07T14:16:40.159Z,10.47
2023-11-07T14:19:09.332Z,10.59
2023-11-07T14:21:36.238Z,10.65
2023-11-07T14:24:03.741Z,10.72
2023-11-07T14:26:30.881Z,10.84
2023-11-07T14:29:01.795Z,10.93
2023-11-07T14:31:31.539Z,10.96
2023-11-07T14:34:01.966Z,10.96
2023-11-07T14:36:29.049Z,10.92
2023-11-07T14:38:55.686Z,10.86
2023-11-07T14:41:23.536Z,10.79
2023-11-07T14:43:50.046Z,10.72
2023-11-07T14:46:18.171Z,10.67
2023-11-07T14:48:44.792Z,10.64
2023-11-07T14:51:12.737Z,10.56
2023-11-07T14:53:39.422Z,10.47
2023-11-07T14:56:06.124Z,10.40
2023-11-07T14:58:33.818Z,10.37
2023-11-07T15:01:01.326Z,10.40
2023-11-07T15:03:28.081Z,10.38
2023-11-07T15:05:55.584Z,10.36
2023-11-07T15:08:23.457Z,10.35
2023-11-07T15:10:50.064Z,10.27
2023-11-07T15:13:16.542Z,10.19
2023-11-07T15:15:43.013Z,10.06
2023-11-07T15:18:12.777Z,10.04
2023-11-07T15:20:42.162Z,10.04
2023-11-07T15:23:09.157Z,10.01
2023-11-07T15:25:37.094Z,10.02
2023-11-07T15:28:04.963Z,10.03
2023-11-07T15:30:32.345Z,9.99
2023-11-07T15:33:01.529Z,9.97
2023-11-07T15:35:35.321Z,9.88
2023-11-07T15:38:02.254Z,9.78
2023-11-07T15:40:28.987Z,9.63
2023-11-07T15:42:56.029Z,9.51
2023-11-07T15:45:22.719Z,9.45
2023-11-07T15:47:50.220Z,9.40
2023-11-07T15:50:18.567Z,9.32
2023-11-07T15:53:03.843Z,9.28
2023-11-07T15:55:36.157Z,9.23
2023-11-07T15:58:03.021Z,9.18
2023-11-07T16:00:29.678Z,9.11
2023-11-07T16:02:57.353Z,9.09
2023-11-07T16:05:30.238Z,9.07
2023-11-07T16:07:57.025Z,9.04
2023-11-07T16:10:24.719Z,8.97
2023-11-07T16:12:52.269Z,8.93
2023-11-07T16:15:19.884Z,8.94
2023-11-07T16:17:47.971Z,8.98
2023-11-07T16:20:21.731Z,9.06
2023-11-07T16:22:48.670Z,9.16
2023-11-07T16:25:16.826Z,9.21
2023-11-07T16:27:43.711Z,9.24
2023-11-07T16:30:10.552Z,9.26
2023-11-07T16:32:37.125Z,9.29
2023-11-07T16:35:05.848Z,9.29
2023-11-07T16:37:35.581Z,9.22
2023-11-07T16:40:08.698Z,9.22
2023-11-07T16:42:35.410Z,9.24
2023-11-07T16:45:04.782Z,9.21
2023-11-07T16:47:31.622Z,9.21
2023-11-07T16:49:58.306Z,9.09
2023-11-07T16:52:24.930Z,9.02
2023-11-07T16:54:53.745Z,8.91
2023-11-07T16:57:20.951Z,8.82
2023-11-07T16:59:48.203Z,8.76
2023-11-07T17:02:14.721Z,8.70
2023-11-07T17:04:42.988Z,8.63
2023-11-07T17:07:10.092Z,8.57
2023-11-07T17:09:37.274Z,8.52
2023-11-07T17:12:05.028Z,8.49
2023-11-07T17:14:31.733Z,8.48
2023-11-07T17:16:59.659Z,8.44
2023-11-07T17:19:26.520Z,8.46
2023-11-07T17:21:54.246Z,8.44
2023-11-07T17:24:26.158Z,8.45
2023-11-07T17:26:54.019Z,8.43
2023-11-07T17:29:22.113Z,8.40
2023-11-07T17:31:49.256Z,8.37
2023-11-07T17:34:16.168Z,8.31
2023-11-07T17:36:44.231Z,8.25
2023-11-07T17:39:18.605Z,8.24
2023-11-07T17:41:45.957Z,8.22
2023-11-07T17:44:12.650Z,8.23
2023-11-07T17:46:42.761Z,8.23
2023-11-07T17:49:09.531Z,8.23
2023-11-07T17:51:39.356Z,8.30
2023-11-07T17:54:08.940Z,8.32
2023-11-07T17:56:36.904Z,8.33
2023-11-07T17:59:04.461Z,8.34
2023-11-07T18:01:31.148Z,8.29
2023-11-07T18:03:57.816Z,8.30
2023-11-07T18:06:28.537Z,8.28
2023-11-07T18:08:55.712Z,8.25
2023-11-07T18:11:22.774Z,8.22
2023-11-07T18:13:49.444Z,8.20
2023-11-07T18:16:15.970Z,8.20
2023-11-07T18:18:57.410Z,8.17
2023-11-07T18:21:27.206Z,8.12
2023-11-07T18:23:54.769Z,8.10
2023-11-07T18:26:22.880Z,8.08
2023-11-07T18:28:50.485Z,8.09
2023-11-07T18:31:18.221Z,8.10
2023-11-07T18:33:49.452Z,8.09
2023-11-07T18:36:18.014Z,8.08
2023-11-07T18:38:45.284Z,8.08
2023-11-07T18:41:12.021Z,8.05
2023-11-07T18:43:38.635Z,8.02
2023-11-07T18:46:06.352Z,7.99
2023-11-07T18:48:34.337Z,7.97
2023-11-07T18:51:01.577Z,7.95
2023-11-07T18:53:37.182Z,7.96
2023-11-07T18:56:14.180Z,7.97
2023-11-07T18:58:40.867Z,7.99
2023-11-07T19:01:09.174Z,8.01
2023-11-07T19:03:36.063Z,8.03
2023-11-07T19:06:02.814Z,8.04
2023-11-07T19:08:29.273Z,8.04
2023-11-07T19:10:55.857Z,8.06
2023-11-07T19:13:22.587Z,8.08
2023-11-07T19:15:49.427Z,8.13
2023-11-07T19:18:16.003Z,8.16
2023-11-07T19:20:43.073Z,8.20
2023-11-07T19:23:10.428Z,8.24
2023-11-07T19:25:37.781Z,8.28
2023-11-07T19:28:04.818Z,8.30
2023-11-07T19:30:31.887Z,8.32
2023-11-07T19:32:58.783Z,8.31
2023-11-07T19:35:25.999Z,8.26
2023-11-07T19:37:54.727Z,8.22
2023-11-07T19:40:24.428Z,8.17
2023-11-07T19:42:52.835Z,8.13
2023-11-07T19:45:19.811Z,8.10
2023-11-07T19:47:46.594Z,8.05
2023-11-07T19:50:14.089Z,7.99
2023-11-07T19:52:41.929Z,7.96
2023-11-07T19:55:08.807Z,7.92
2023-11-07T19:57:37.955Z,7.89
2023-11-07T20:00:13.639Z,7.87
2023-11-07T20:02:43.763Z,7.88
2023-11-07T20:05:13.956Z,7.90
2023-11-07T20:07:51.399Z,7.92
2023-11-07T20:10:22.739Z,7.97
2023-11-07T20:12:49.411Z,8.02
2023-11-07T20:15:17.279Z,8.01
2023-11-07T20:17:43.912Z,8.01
2023-11-07T20:20:11.049Z,8.03
2023-11-07T20:22:37.875Z,8.04
2023-11-07T20:25:06.827Z,8.06
2023-11-07T20:27:33.753Z,8.04
2023-11-07T20:30:00.482Z,7.98
2023-11-07T20:32:27.115Z,7.93
2023-11-07T20:34:58.063Z,7.90
2023-11-07T20:37:26.055Z,7.83
2023-11-07T20:39:52.731Z,7.81
2023-11-07T20:42:20.412Z,7.74
2023-11-07T20:44:49.885Z,7.72
2023-11-07T20:47:18.813Z,7.69
2023-11-07T20:49:48.925Z,7.66
2023-11-07T20:52:25.118Z,7.69
2023-11-07T20:54:56.153Z,7.73
2023-11-07T20:57:23.782Z,7.77
2023-11-07T20:59:52.588Z,7.81
2023-11-07T21:02:19.150Z,7.82
2023-11-07T21:04:45.668Z,7.81
2023-11-07T21:07:12.847Z,7.80
2023-11-07T21:09:40.256Z,7.77
2023-11-07T21:12:07.295Z,7.77
2023-11-07T21:14:34.897Z,7.77
2023-11-07T21:17:01.474Z,7.76
2023-11-07T21:19:28.410Z,7.71
2023-11-07T21:22:00.571Z,7.65
2023-11-07T21:24:27.497Z,7.65
2023-11-07T21:26:54.372Z,7.65
2023-11-07T21:29:21.241Z,7.65
2023-11-07T21:31:48.581Z,7.62
2023-11-07T21:34:15.855Z,7.62
2023-11-07T21:36:44.251Z,7.62
2023-11-07T21:39:12.793Z,7.60
2023-11-07T21:41:39.648Z,7.59
2023-11-07T21:44:06.107Z,7.59
2023-11-07T21:46:32.942Z,7.55
2023-11-07T21:49:00.851Z,7.53
2023-11-07T21:51:27.892Z,7.50
2023-11-07T21:53:55.299Z,7.51
2023-11-07T21:56:22.739Z,7.51
2023-11-07T21:58:49.370Z,7.49
2023-11-07T22:01:17.351Z,7.47
2023-11-07T22:03:47.209Z,7.49
2023-11-07T22:06:14.058Z,7.51
2023-11-07T22:08:40.522Z,7.54
2023-11-07T22:11:10.100Z,7.59
2023-11-07T22:13:39.535Z,7.61
2023-11-07T22:16:06.514Z,7.61
2023-11-07T22:18:33.432Z,7.60
2023-11-07T22:21:00.495Z,7.60
2023-11-07T22:23:27.588Z,7.54
2023-11-07T22:25:54.621Z,7.53
2023-11-07T22:28:21.152Z,7.49
2023-11-07T22:30:48.046Z,7.48
2023-11-07T22:33:14.668Z,7.48
2023-11-07T22:35:41.284Z,7.48
2023-11-07T22:38:08.716Z,7.50
2023-11-07T22:40:35.977Z,7.52
2023-11-07T22:43:02.993Z,7.57
2023-11-07T22:45:29.670Z,7.61
2023-11-07T22:47:56.422Z,7.66
2023-11-07T22:50:24.658Z,7.68
2023-11-07T22:52:51.428Z,7.71
2023-11-07T22:55:18.075Z,7.73
2023-11-07T22:57:44.612Z,7.73
2023-11-07T23:00:16.570Z,7.75
2023-11-07T23:02:43.083Z,7.78
2023-11-07T23:05:09.736Z,7.85
2023-11-07T23:07:36.817Z,7.85
2023-11-07T23:10:03.525Z,7.89
2023-11-07T23:12:30.160Z,7.93
2023-11-07T23:14:56.709Z,7.97
2023-11-07T23:17:23.289Z,7.99
2023-11-07T23:19:49.732Z,8.03
2023-11-07T23:22:16.255Z,8.04
2023-11-07T23:24:45.536Z,8.04
2023-11-07T23:27:15.187Z,8.04
2023-11-07T23:29:44.900Z,8.05
2023-11-07T23:32:11.245Z,8.09
2023-11-07T23:34:37.789Z,8.06
2023-11-07T23:37:04.592Z,8.04
2023-11-07T23:39:31.148Z,8.01
2023-11-07T23:41:57.727Z,8.01
2023-11-07T23:44:27.375Z,8.03
2023-11-07T23:46:54.002Z,8.01
2023-11-07T23:49:20.777Z,8.00
2023-11-07T23:51:47.865Z,8.00
2023-11-07T23:54:14.400Z,8.01
2023-11-07T23:56:41.184Z,8.06
2023-11-07T23:59:07.696Z,8.10
